メインページ
METAR-TAF:

METAR-TAF

空港 :

ウランバートル, モンゴル国

チンギスハーン国際空港

緯度: 47-55N, 経度: 106-52E, 海抜: 1306m

現時点の気象観測

当レポートは30分前の16:00(UTC)に作成
変向風 2kt
気温 13°C
湿度 72%
気圧 1016 hPa
視程10km以上
1,500メートル以下は雲なし、積乱雲なし

METAR: ZMUB 221600Z VRB01MPS CAVOK 13/08 Q1016 NOSIG RMK QFE655.0 68

時間: 01:30 (16:30 UTC)

予報

当レポートは6時間0分前の10:30(UTC)に作成
予報は22日の 12時(UTC)から 23日の 18時(UTC)まで有効
変向風 4kt
視程10km以上
1,500メートル以下は雲なし、積乱雲なし
23日の 02時(UTC)から 23日の 04時(UTC)まで徐々に
高度3000ftの雲はほとんどない, 積乱雲.
高度3300ftの雲は散在している

TAF: ZMUB 221030Z 2212/2318 VRB02MPS CAVOK TN11/2221Z TX27/2307Z BECMG 2302/2304 FEW030CB SCT033

4,000以上の空港の気象観測と天気予報(METAR報とTAF報)

利用可能な観測所は地図上に黄色い丸と赤い丸で示す。

丸の上にカーソルを重ねると観測所名を参照できる。

次にクリックすると気象観測と天気予報を参照できる。

マップの切り替え:黒色「×」印の緑ボタンをクリックして拡大、「-」印の緑ボタンをクリックして縮小、緑色の三角印をクリックして隣りの地図に切り替え


METAR-TAF: